sensor_id;sensor_type;location;lat;lon;timestamp;P1;durP1;ratioP1;P2;durP2;ratioP2
7929;SDS011;4010;42.698;23.124;2023-06-14T00:02:22;9.17;;;8.03;;
7929;SDS011;4010;42.698;23.124;2023-06-14T00:04:50;15.73;;;8.70;;
7929;SDS011;4010;42.698;23.124;2023-06-14T00:07:17;13.47;;;9.57;;
7929;SDS011;4010;42.698;23.124;2023-06-14T00:09:45;11.93;;;9.83;;
7929;SDS011;4010;42.698;23.124;2023-06-14T00:12:11;10.77;;;9.40;;
7929;SDS011;4010;42.698;23.124;2023-06-14T00:14:38;14.27;;;9.27;;
7929;SDS011;4010;42.698;23.124;2023-06-14T00:17:05;11.00;;;9.10;;
7929;SDS011;4010;42.698;23.124;2023-06-14T00:19:32;13.77;;;9.37;;
7929;SDS011;4010;42.698;23.124;2023-06-14T00:22:01;12.87;;;9.23;;
7929;SDS011;4010;42.698;23.124;2023-06-14T00:24:28;10.17;;;9.17;;
7929;SDS011;4010;42.698;23.124;2023-06-14T00:26:55;10.63;;;9.10;;
7929;SDS011;4010;42.698;23.124;2023-06-14T00:29:21;9.20;;;8.07;;
7929;SDS011;4010;42.698;23.124;2023-06-14T00:31:49;10.77;;;8.20;;
7929;SDS011;4010;42.698;23.124;2023-06-14T00:34:15;12.20;;;8.10;;
7929;SDS011;4010;42.698;23.124;2023-06-14T00:36:42;9.17;;;8.13;;
7929;SDS011;4010;42.698;23.124;2023-06-14T00:39:10;10.00;;;8.97;;
7929;SDS011;4010;42.698;23.124;2023-06-14T00:41:37;11.90;;;8.43;;
7929;SDS011;4010;42.698;23.124;2023-06-14T00:44:04;9.67;;;8.53;;
7929;SDS011;4010;42.698;23.124;2023-06-14T00:46:31;10.03;;;8.77;;
7929;SDS011;4010;42.698;23.124;2023-06-14T00:48:57;11.33;;;8.30;;
7929;SDS011;4010;42.698;23.124;2023-06-14T00:51:25;11.13;;;7.77;;
7929;SDS011;4010;42.698;23.124;2023-06-14T00:53:52;11.40;;;8.00;;
7929;SDS011;4010;42.698;23.124;2023-06-14T00:56:20;10.43;;;7.80;;
7929;SDS011;4010;42.698;23.124;2023-06-14T00:58:48;11.50;;;7.70;;
7929;SDS011;4010;42.698;23.124;2023-06-14T01:01:16;14.03;;;8.23;;
7929;SDS011;4010;42.698;23.124;2023-06-14T01:03:42;8.27;;;7.43;;
7929;SDS011;4010;42.698;23.124;2023-06-14T01:06:12;8.63;;;7.60;;
7929;SDS011;4010;42.698;23.124;2023-06-14T01:08:56;11.33;;;6.67;;
7929;SDS011;4010;42.698;23.124;2023-06-14T01:11:49;9.43;;;7.40;;
7929;SDS011;4010;42.698;23.124;2023-06-14T01:14:20;8.23;;;6.60;;
7929;SDS011;4010;42.698;23.124;2023-06-14T01:16:47;9.73;;;7.83;;
7929;SDS011;4010;42.698;23.124;2023-06-14T01:19:18;8.27;;;6.30;;
7929;SDS011;4010;42.698;23.124;2023-06-14T01:21:47;8.63;;;6.73;;
7929;SDS011;4010;42.698;23.124;2023-06-14T01:24:17;7.83;;;6.47;;
7929;SDS011;4010;42.698;23.124;2023-06-14T01:26:48;8.50;;;6.50;;
7929;SDS011;4010;42.698;23.124;2023-06-14T01:29:20;7.50;;;5.90;;
7929;SDS011;4010;42.698;23.124;2023-06-14T01:31:48;10.73;;;6.30;;
7929;SDS011;4010;42.698;23.124;2023-06-14T01:34:16;6.87;;;5.93;;
7929;SDS011;4010;42.698;23.124;2023-06-14T01:36:43;6.03;;;5.50;;
7929;SDS011;4010;42.698;23.124;2023-06-14T01:39:11;8.20;;;5.50;;
7929;SDS011;4010;42.698;23.124;2023-06-14T01:41:41;7.00;;;5.73;;
7929;SDS011;4010;42.698;23.124;2023-06-14T01:44:09;5.83;;;5.33;;
7929;SDS011;4010;42.698;23.124;2023-06-14T01:46:36;28.40;;;5.97;;
7929;SDS011;4010;42.698;23.124;2023-06-14T01:49:04;7.33;;;5.13;;
7929;SDS011;4010;42.698;23.124;2023-06-14T01:51:30;6.00;;;5.47;;
7929;SDS011;4010;42.698;23.124;2023-06-14T01:53:57;7.53;;;5.63;;
7929;SDS011;4010;42.698;23.124;2023-06-14T01:56:25;7.83;;;5.87;;
7929;SDS011;4010;42.698;23.124;2023-06-14T01:58:53;6.00;;;5.40;;
7929;SDS011;4010;42.698;23.124;2023-06-14T02:01:21;8.13;;;6.30;;
7929;SDS011;4010;42.698;23.124;2023-06-14T02:03:48;8.10;;;6.33;;
7929;SDS011;4010;42.698;23.124;2023-06-14T02:06:16;7.27;;;6.07;;
7929;SDS011;4010;42.698;23.124;2023-06-14T02:08:43;6.43;;;5.83;;
7929;SDS011;4010;42.698;23.124;2023-06-14T02:11:10;8.83;;;5.23;;
7929;SDS011;4010;42.698;23.124;2023-06-14T02:13:36;6.23;;;5.40;;
7929;SDS011;4010;42.698;23.124;2023-06-14T02:16:04;6.57;;;5.97;;
7929;SDS011;4010;42.698;23.124;2023-06-14T02:18:32;5.97;;;5.37;;
7929;SDS011;4010;42.698;23.124;2023-06-14T02:20:58;7.50;;;5.23;;
7929;SDS011;4010;42.698;23.124;2023-06-14T02:23:25;6.03;;;5.10;;
7929;SDS011;4010;42.698;23.124;2023-06-14T02:25:52;9.33;;;6.23;;
7929;SDS011;4010;42.698;23.124;2023-06-14T02:28:18;7.50;;;5.43;;
7929;SDS011;4010;42.698;23.124;2023-06-14T02:30:46;6.43;;;5.37;;
7929;SDS011;4010;42.698;23.124;2023-06-14T02:33:14;8.47;;;6.13;;
7929;SDS011;4010;42.698;23.124;2023-06-14T02:35:41;7.87;;;6.10;;
7929;SDS011;4010;42.698;23.124;2023-06-14T02:38:07;6.57;;;5.87;;
7929;SDS011;4010;42.698;23.124;2023-06-14T02:40:34;10.63;;;5.90;;
7929;SDS011;4010;42.698;23.124;2023-06-14T02:43:01;6.93;;;6.10;;
7929;SDS011;4010;42.698;23.124;2023-06-14T02:45:28;6.87;;;6.13;;
7929;SDS011;4010;42.698;23.124;2023-06-14T02:47:54;6.77;;;6.07;;
7929;SDS011;4010;42.698;23.124;2023-06-14T02:50:23;7.00;;;6.30;;
7929;SDS011;4010;42.698;23.124;2023-06-14T02:52:50;6.53;;;5.93;;
7929;SDS011;4010;42.698;23.124;2023-06-14T02:55:17;6.80;;;6.10;;
7929;SDS011;4010;42.698;23.124;2023-06-14T02:57:44;9.50;;;5.90;;
7929;SDS011;4010;42.698;23.124;2023-06-14T03:00:13;8.77;;;6.03;;
7929;SDS011;4010;42.698;23.124;2023-06-14T03:02:40;6.30;;;5.70;;
7929;SDS011;4010;42.698;23.124;2023-06-14T03:05:08;6.70;;;6.00;;
7929;SDS011;4010;42.698;23.124;2023-06-14T03:07:36;7.17;;;6.47;;
7929;SDS011;4010;42.698;23.124;2023-06-14T03:10:06;8.17;;;6.40;;
7929;SDS011;4010;42.698;23.124;2023-06-14T03:12:34;7.10;;;6.40;;
7929;SDS011;4010;42.698;23.124;2023-06-14T03:15:01;9.60;;;7.13;;
7929;SDS011;4010;42.698;23.124;2023-06-14T03:17:29;7.57;;;6.87;;
7929;SDS011;4010;42.698;23.124;2023-06-14T03:19:58;8.53;;;5.97;;
7929;SDS011;4010;42.698;23.124;2023-06-14T03:22:25;8.33;;;6.43;;
7929;SDS011;4010;42.698;23.124;2023-06-14T03:24:53;7.80;;;6.27;;
7929;SDS011;4010;42.698;23.124;2023-06-14T03:27:20;7.67;;;6.10;;
7929;SDS011;4010;42.698;23.124;2023-06-14T03:29:46;7.03;;;6.43;;
7929;SDS011;4010;42.698;23.124;2023-06-14T03:32:13;6.17;;;5.57;;
7929;SDS011;4010;42.698;23.124;2023-06-14T03:34:40;7.23;;;6.53;;
7929;SDS011;4010;42.698;23.124;2023-06-14T03:37:07;7.30;;;6.60;;
7929;SDS011;4010;42.698;23.124;2023-06-14T03:39:34;7.50;;;6.80;;
7929;SDS011;4010;42.698;23.124;2023-06-14T03:42:03;7.07;;;6.23;;
7929;SDS011;4010;42.698;23.124;2023-06-14T03:44:30;7.10;;;6.10;;
7929;SDS011;4010;42.698;23.124;2023-06-14T03:46:56;7.63;;;6.20;;
7929;SDS011;4010;42.698;23.124;2023-06-14T03:49:23;6.30;;;5.80;;
7929;SDS011;4010;42.698;23.124;2023-06-14T03:51:50;6.40;;;5.80;;
7929;SDS011;4010;42.698;23.124;2023-06-14T03:54:17;7.70;;;5.70;;
7929;SDS011;4010;42.698;23.124;2023-06-14T03:56:44;6.37;;;5.77;;
7929;SDS011;4010;42.698;23.124;2023-06-14T03:59:13;6.10;;;5.50;;
7929;SDS011;4010;42.698;23.124;2023-06-14T04:01:39;6.50;;;6.00;;
7929;SDS011;4010;42.698;23.124;2023-06-14T04:04:11;6.67;;;6.07;;
7929;SDS011;4010;42.698;23.124;2023-06-14T04:06:37;6.57;;;5.73;;
7929;SDS011;4010;42.698;23.124;2023-06-14T04:09:06;6.37;;;5.43;;
7929;SDS011;4010;42.698;23.124;2023-06-14T04:11:33;6.77;;;5.40;;
7929;SDS011;4010;42.698;23.124;2023-06-14T04:13:59;5.00;;;4.50;;
7929;SDS011;4010;42.698;23.124;2023-06-14T04:16:29;5.57;;;5.07;;
7929;SDS011;4010;42.698;23.124;2023-06-14T04:18:56;5.53;;;5.03;;
7929;SDS011;4010;42.698;23.124;2023-06-14T04:21:23;5.13;;;4.73;;
7929;SDS011;4010;42.698;23.124;2023-06-14T04:23:51;6.67;;;5.50;;
7929;SDS011;4010;42.698;23.124;2023-06-14T04:26:20;5.87;;;5.27;;
7929;SDS011;4010;42.698;23.124;2023-06-14T04:28:48;5.23;;;4.83;;
7929;SDS011;4010;42.698;23.124;2023-06-14T04:31:15;4.50;;;4.10;;
7929;SDS011;4010;42.698;23.124;2023-06-14T04:33:43;5.63;;;4.70;;
7929;SDS011;4010;42.698;23.124;2023-06-14T04:36:11;4.63;;;4.17;;
7929;SDS011;4010;42.698;23.124;2023-06-14T04:38:38;4.53;;;4.23;;
7929;SDS011;4010;42.698;23.124;2023-06-14T04:41:06;5.07;;;4.67;;
7929;SDS011;4010;42.698;23.124;2023-06-14T04:43:36;7.10;;;4.73;;
7929;SDS011;4010;42.698;23.124;2023-06-14T04:46:04;4.87;;;4.47;;
7929;SDS011;4010;42.698;23.124;2023-06-14T04:48:35;4.87;;;4.47;;
7929;SDS011;4010;42.698;23.124;2023-06-14T04:51:03;4.60;;;4.30;;
7929;SDS011;4010;42.698;23.124;2023-06-14T04:53:30;4.70;;;4.40;;
7929;SDS011;4010;42.698;23.124;2023-06-14T04:55:57;6.10;;;4.63;;
7929;SDS011;4010;42.698;23.124;2023-06-14T04:58:26;5.53;;;4.47;;
7929;SDS011;4010;42.698;23.124;2023-06-14T05:00:52;4.60;;;4.30;;
7929;SDS011;4010;42.698;23.124;2023-06-14T05:03:21;6.10;;;4.77;;
7929;SDS011;4010;42.698;23.124;2023-06-14T05:05:49;6.27;;;4.50;;
7929;SDS011;4010;42.698;23.124;2023-06-14T05:08:17;5.00;;;4.60;;
7929;SDS011;4010;42.698;23.124;2023-06-14T05:10:43;4.70;;;4.30;;
7929;SDS011;4010;42.698;23.124;2023-06-14T05:13:10;5.10;;;4.60;;
7929;SDS011;4010;42.698;23.124;2023-06-14T05:15:36;5.00;;;4.50;;
7929;SDS011;4010;42.698;23.124;2023-06-14T05:18:03;5.40;;;4.90;;
7929;SDS011;4010;42.698;23.124;2023-06-14T05:20:30;4.73;;;4.33;;
7929;SDS011;4010;42.698;23.124;2023-06-14T05:22:57;4.80;;;4.40;;
7929;SDS011;4010;42.698;23.124;2023-06-14T05:25:25;5.10;;;4.53;;
7929;SDS011;4010;42.698;23.124;2023-06-14T05:27:53;5.00;;;4.50;;
7929;SDS011;4010;42.698;23.124;2023-06-14T05:30:20;4.70;;;4.30;;
7929;SDS011;4010;42.698;23.124;2023-06-14T05:32:47;4.87;;;3.90;;
7929;SDS011;4010;42.698;23.124;2023-06-14T05:35:13;4.73;;;4.23;;
7929;SDS011;4010;42.698;23.124;2023-06-14T05:37:40;4.63;;;4.20;;
7929;SDS011;4010;42.698;23.124;2023-06-14T05:40:07;7.80;;;4.90;;
7929;SDS011;4010;42.698;23.124;2023-06-14T05:42:36;5.63;;;4.40;;
7929;SDS011;4010;42.698;23.124;2023-06-14T05:45:03;5.47;;;4.80;;
7929;SDS011;4010;42.698;23.124;2023-06-14T05:47:31;5.20;;;4.80;;
7929;SDS011;4010;42.698;23.124;2023-06-14T05:49:57;5.80;;;5.23;;
7929;SDS011;4010;42.698;23.124;2023-06-14T05:52:24;5.93;;;5.40;;
7929;SDS011;4010;42.698;23.124;2023-06-14T05:54:51;5.50;;;5.10;;
7929;SDS011;4010;42.698;23.124;2023-06-14T05:57:18;5.90;;;5.40;;
7929;SDS011;4010;42.698;23.124;2023-06-14T05:59:46;5.83;;;5.33;;
7929;SDS011;4010;42.698;23.124;2023-06-14T06:02:12;8.07;;;6.27;;
7929;SDS011;4010;42.698;23.124;2023-06-14T06:04:39;7.10;;;6.50;;
7929;SDS011;4010;42.698;23.124;2023-06-14T06:07:06;6.70;;;6.07;;
7929;SDS011;4010;42.698;23.124;2023-06-14T06:09:33;6.57;;;5.97;;
7929;SDS011;4010;42.698;23.124;2023-06-14T06:11:59;6.40;;;5.90;;
7929;SDS011;4010;42.698;23.124;2023-06-14T06:14:26;6.40;;;5.80;;
7929;SDS011;4010;42.698;23.124;2023-06-14T06:16:54;6.00;;;5.50;;
7929;SDS011;4010;42.698;23.124;2023-06-14T06:19:21;6.77;;;5.80;;
7929;SDS011;4010;42.698;23.124;2023-06-14T06:21:47;5.90;;;5.40;;
7929;SDS011;4010;42.698;23.124;2023-06-14T06:24:14;5.40;;;5.00;;
7929;SDS011;4010;42.698;23.124;2023-06-14T06:26:41;5.60;;;5.10;;
7929;SDS011;4010;42.698;23.124;2023-06-14T06:29:08;5.60;;;5.20;;
7929;SDS011;4010;42.698;23.124;2023-06-14T06:31:35;5.07;;;4.67;;
7929;SDS011;4010;42.698;23.124;2023-06-14T06:34:03;5.43;;;4.93;;
7929;SDS011;4010;42.698;23.124;2023-06-14T06:36:29;5.33;;;4.93;;
7929;SDS011;4010;42.698;23.124;2023-06-14T06:38:56;5.63;;;5.23;;
7929;SDS011;4010;42.698;23.124;2023-06-14T06:41:23;5.50;;;5.10;;
7929;SDS011;4010;42.698;23.124;2023-06-14T06:43:49;5.57;;;5.13;;
7929;SDS011;4010;42.698;23.124;2023-06-14T06:46:16;6.07;;;5.60;;
7929;SDS011;4010;42.698;23.124;2023-06-14T06:48:44;6.47;;;5.70;;
7929;SDS011;4010;42.698;23.124;2023-06-14T06:51:12;5.67;;;4.97;;
7929;SDS011;4010;42.698;23.124;2023-06-14T06:53:39;6.00;;;5.50;;
7929;SDS011;4010;42.698;23.124;2023-06-14T06:56:08;6.67;;;6.07;;
7929;SDS011;4010;42.698;23.124;2023-06-14T06:58:34;6.53;;;6.03;;
7929;SDS011;4010;42.698;23.124;2023-06-14T07:01:01;6.80;;;6.20;;
7929;SDS011;4010;42.698;23.124;2023-06-14T07:03:27;6.50;;;5.83;;
7929;SDS011;4010;42.698;23.124;2023-06-14T07:05:55;6.80;;;6.30;;
7929;SDS011;4010;42.698;23.124;2023-06-14T07:08:23;6.47;;;5.83;;
7929;SDS011;4010;42.698;23.124;2023-06-14T07:10:49;6.17;;;5.67;;
7929;SDS011;4010;42.698;23.124;2023-06-14T07:13:16;7.57;;;6.37;;
7929;SDS011;4010;42.698;23.124;2023-06-14T07:15:43;6.90;;;6.37;;
7929;SDS011;4010;42.698;23.124;2023-06-14T07:18:10;8.03;;;7.33;;
7929;SDS011;4010;42.698;23.124;2023-06-14T07:20:36;7.00;;;6.50;;
7929;SDS011;4010;42.698;23.124;2023-06-14T07:23:05;7.73;;;7.13;;
7929;SDS011;4010;42.698;23.124;2023-06-14T07:25:33;7.47;;;6.87;;
7929;SDS011;4010;42.698;23.124;2023-06-14T07:28:00;7.60;;;7.00;;
7929;SDS011;4010;42.698;23.124;2023-06-14T07:30:27;7.93;;;7.20;;
7929;SDS011;4010;42.698;23.124;2023-06-14T07:32:55;7.87;;;7.17;;
7929;SDS011;4010;42.698;23.124;2023-06-14T07:35:21;7.90;;;7.10;;
7929;SDS011;4010;42.698;23.124;2023-06-14T07:37:48;7.13;;;6.47;;
7929;SDS011;4010;42.698;23.124;2023-06-14T07:40:15;7.33;;;6.73;;
7929;SDS011;4010;42.698;23.124;2023-06-14T07:42:43;7.47;;;6.87;;
7929;SDS011;4010;42.698;23.124;2023-06-14T07:45:12;7.47;;;6.87;;
7929;SDS011;4010;42.698;23.124;2023-06-14T07:47:39;7.80;;;7.10;;
7929;SDS011;4010;42.698;23.124;2023-06-14T07:50:06;7.90;;;7.20;;
7929;SDS011;4010;42.698;23.124;2023-06-14T07:52:33;10.27;;;7.60;;
7929;SDS011;4010;42.698;23.124;2023-06-14T07:55:00;7.80;;;7.00;;
7929;SDS011;4010;42.698;23.124;2023-06-14T07:57:27;7.53;;;6.93;;
7929;SDS011;4010;42.698;23.124;2023-06-14T07:59:55;8.50;;;7.80;;
7929;SDS011;4010;42.698;23.124;2023-06-14T08:02:22;7.73;;;7.13;;
7929;SDS011;4010;42.698;23.124;2023-06-14T08:04:48;8.70;;;7.83;;
7929;SDS011;4010;42.698;23.124;2023-06-14T08:07:15;7.97;;;7.27;;
7929;SDS011;4010;42.698;23.124;2023-06-14T08:09:42;7.80;;;7.20;;
7929;SDS011;4010;42.698;23.124;2023-06-14T08:12:09;8.33;;;7.63;;
7929;SDS011;4010;42.698;23.124;2023-06-14T08:14:36;7.67;;;7.07;;
7929;SDS011;4010;42.698;23.124;2023-06-14T08:17:04;7.37;;;6.67;;
7929;SDS011;4010;42.698;23.124;2023-06-14T08:19:30;8.53;;;7.73;;
7929;SDS011;4010;42.698;23.124;2023-06-14T08:21:57;11.63;;;7.40;;
7929;SDS011;4010;42.698;23.124;2023-06-14T08:24:25;7.90;;;7.20;;
7929;SDS011;4010;42.698;23.124;2023-06-14T08:26:52;8.63;;;7.63;;
7929;SDS011;4010;42.698;23.124;2023-06-14T08:29:18;8.23;;;7.63;;
7929;SDS011;4010;42.698;23.124;2023-06-14T08:31:45;8.73;;;7.83;;
7929;SDS011;4010;42.698;23.124;2023-06-14T08:34:14;9.03;;;8.23;;
7929;SDS011;4010;42.698;23.124;2023-06-14T08:36:40;8.83;;;8.13;;
7929;SDS011;4010;42.698;23.124;2023-06-14T08:39:07;9.13;;;8.17;;
7929;SDS011;4010;42.698;23.124;2023-06-14T08:41:34;9.57;;;8.20;;
7929;SDS011;4010;42.698;23.124;2023-06-14T08:44:02;9.03;;;8.23;;
7929;SDS011;4010;42.698;23.124;2023-06-14T08:46:29;9.70;;;8.67;;
7929;SDS011;4010;42.698;23.124;2023-06-14T08:48:59;9.27;;;8.57;;
7929;SDS011;4010;42.698;23.124;2023-06-14T08:51:29;9.73;;;8.93;;
7929;SDS011;4010;42.698;23.124;2023-06-14T08:53:59;9.90;;;8.87;;
7929;SDS011;4010;42.698;23.124;2023-06-14T08:56:26;9.80;;;9.00;;
7929;SDS011;4010;42.698;23.124;2023-06-14T08:58:54;9.63;;;8.77;;
7929;SDS011;4010;42.698;23.124;2023-06-14T09:01:21;9.77;;;8.77;;
7929;SDS011;4010;42.698;23.124;2023-06-14T09:03:48;10.10;;;9.00;;
7929;SDS011;4010;42.698;23.124;2023-06-14T09:06:15;10.00;;;9.10;;
7929;SDS011;4010;42.698;23.124;2023-06-14T09:08:45;10.03;;;9.13;;
7929;SDS011;4010;42.698;23.124;2023-06-14T09:11:14;9.37;;;8.40;;
7929;SDS011;4010;42.698;23.124;2023-06-14T09:13:43;11.80;;;9.13;;
7929;SDS011;4010;42.698;23.124;2023-06-14T09:16:10;10.17;;;8.80;;
7929;SDS011;4010;42.698;23.124;2023-06-14T09:18:38;9.93;;;9.13;;
7929;SDS011;4010;42.698;23.124;2023-06-14T09:21:06;10.63;;;9.57;;
7929;SDS011;4010;42.698;23.124;2023-06-14T09:23:33;10.70;;;9.30;;
7929;SDS011;4010;42.698;23.124;2023-06-14T09:26:07;10.20;;;9.20;;
7929;SDS011;4010;42.698;23.124;2023-06-14T09:28:35;9.97;;;9.07;;
7929;SDS011;4010;42.698;23.124;2023-06-14T09:31:02;9.37;;;8.47;;
7929;SDS011;4010;42.698;23.124;2023-06-14T09:33:30;11.33;;;10.40;;
7929;SDS011;4010;42.698;23.124;2023-06-14T09:35:57;11.07;;;10.17;;
7929;SDS011;4010;42.698;23.124;2023-06-14T09:38:24;11.00;;;10.00;;
7929;SDS011;4010;42.698;23.124;2023-06-14T09:40:51;11.60;;;10.63;;
7929;SDS011;4010;42.698;23.124;2023-06-14T09:43:19;11.47;;;10.60;;
7929;SDS011;4010;42.698;23.124;2023-06-14T09:45:47;11.00;;;9.87;;
7929;SDS011;4010;42.698;23.124;2023-06-14T09:48:14;10.53;;;9.67;;
7929;SDS011;4010;42.698;23.124;2023-06-14T09:50:44;11.50;;;10.47;;
7929;SDS011;4010;42.698;23.124;2023-06-14T09:53:12;11.43;;;10.20;;
7929;SDS011;4010;42.698;23.124;2023-06-14T09:55:41;13.33;;;10.20;;
7929;SDS011;4010;42.698;23.124;2023-06-14T09:58:08;12.17;;;10.97;;
7929;SDS011;4010;42.698;23.124;2023-06-14T10:00:38;11.73;;;10.70;;
7929;SDS011;4010;42.698;23.124;2023-06-14T10:03:10;10.90;;;10.00;;
7929;SDS011;4010;42.698;23.124;2023-06-14T10:05:39;12.43;;;10.90;;
7929;SDS011;4010;42.698;23.124;2023-06-14T10:08:10;11.20;;;10.20;;
7929;SDS011;4010;42.698;23.124;2023-06-14T10:10:40;11.80;;;10.67;;
7929;SDS011;4010;42.698;23.124;2023-06-14T10:13:08;11.50;;;10.50;;
7929;SDS011;4010;42.698;23.124;2023-06-14T10:15:52;12.40;;;11.20;;
7929;SDS011;4010;42.698;23.124;2023-06-14T10:18:25;11.30;;;10.33;;
7929;SDS011;4010;42.698;23.124;2023-06-14T10:21:00;12.07;;;10.97;;
7929;SDS011;4010;42.698;23.124;2023-06-14T10:23:34;11.60;;;10.50;;
7929;SDS011;4010;42.698;23.124;2023-06-14T10:26:04;11.30;;;10.40;;
7929;SDS011;4010;42.698;23.124;2023-06-14T10:28:31;12.07;;;9.63;;
7929;SDS011;4010;42.698;23.124;2023-06-14T10:31:03;10.57;;;9.60;;
7929;SDS011;4010;42.698;23.124;2023-06-14T10:33:31;12.55;;;11.18;;
7929;SDS011;4010;42.698;23.124;2023-06-14T10:36:08;11.53;;;10.43;;
7929;SDS011;4010;42.698;23.124;2023-06-14T10:38:36;12.27;;;11.23;;
7929;SDS011;4010;42.698;23.124;2023-06-14T10:41:03;12.87;;;10.97;;
7929;SDS011;4010;42.698;23.124;2023-06-14T10:43:30;12.23;;;10.97;;
7929;SDS011;4010;42.698;23.124;2023-06-14T10:46:17;11.83;;;10.70;;
7929;SDS011;4010;42.698;23.124;2023-06-14T10:48:48;12.33;;;11.17;;
7929;SDS011;4010;42.698;23.124;2023-06-14T10:51:15;12.23;;;11.17;;
7929;SDS011;4010;42.698;23.124;2023-06-14T10:53:45;11.57;;;10.53;;
7929;SDS011;4010;42.698;23.124;2023-06-14T10:58:55;11.10;;;10.20;;
7929;SDS011;4010;42.698;23.124;2023-06-14T11:01:31;11.10;;;10.10;;
7929;SDS011;4010;42.698;23.124;2023-06-14T11:04:08;11.40;;;10.40;;
7929;SDS011;4010;42.698;23.124;2023-06-14T11:09:45;11.23;;;10.10;;
7929;SDS011;4010;42.698;23.124;2023-06-14T11:12:25;12.20;;;11.00;;
7929;SDS011;4010;42.698;23.124;2023-06-14T11:14:55;11.83;;;10.73;;
7929;SDS011;4010;42.698;23.124;2023-06-14T11:17:23;12.80;;;11.43;;
7929;SDS011;4010;42.698;23.124;2023-06-14T11:19:50;12.40;;;11.40;;
7929;SDS011;4010;42.698;23.124;2023-06-14T11:22:20;13.80;;;11.13;;
7929;SDS011;4010;42.698;23.124;2023-06-14T11:24:46;12.10;;;10.73;;
7929;SDS011;4010;42.698;23.124;2023-06-14T11:27:13;11.10;;;10.20;;
7929;SDS011;4010;42.698;23.124;2023-06-14T11:29:47;12.80;;;11.67;;
7929;SDS011;4010;42.698;23.124;2023-06-14T11:32:14;13.33;;;11.83;;
7929;SDS011;4010;42.698;23.124;2023-06-14T11:34:42;11.57;;;10.60;;
7929;SDS011;4010;42.698;23.124;2023-06-14T11:37:12;11.83;;;10.63;;
7929;SDS011;4010;42.698;23.124;2023-06-14T11:39:43;12.60;;;11.50;;
7929;SDS011;4010;42.698;23.124;2023-06-14T11:42:13;11.27;;;10.17;;
7929;SDS011;4010;42.698;23.124;2023-06-14T11:44:40;11.43;;;10.47;;
7929;SDS011;4010;42.698;23.124;2023-06-14T11:47:06;15.63;;;11.43;;
7929;SDS011;4010;42.698;23.124;2023-06-14T11:49:35;12.60;;;11.60;;
7929;SDS011;4010;42.698;23.124;2023-06-14T11:52:03;17.53;;;12.77;;
7929;SDS011;4010;42.698;23.124;2023-06-14T11:54:31;14.07;;;12.93;;
7929;SDS011;4010;42.698;23.124;2023-06-14T11:56:58;12.70;;;11.60;;
7929;SDS011;4010;42.698;23.124;2023-06-14T11:59:25;14.23;;;12.93;;
7929;SDS011;4010;42.698;23.124;2023-06-14T12:01:53;14.47;;;12.97;;
7929;SDS011;4010;42.698;23.124;2023-06-14T12:04:23;13.53;;;12.13;;
7929;SDS011;4010;42.698;23.124;2023-06-14T12:06:50;13.70;;;12.33;;
7929;SDS011;4010;42.698;23.124;2023-06-14T12:09:19;15.43;;;14.03;;
7929;SDS011;4010;42.698;23.124;2023-06-14T12:11:49;15.10;;;13.67;;
7929;SDS011;4010;42.698;23.124;2023-06-14T12:14:16;14.00;;;12.80;;
7929;SDS011;4010;42.698;23.124;2023-06-14T12:16:42;13.43;;;12.13;;
7929;SDS011;4010;42.698;23.124;2023-06-14T12:19:11;13.33;;;12.03;;
7929;SDS011;4010;42.698;23.124;2023-06-14T12:21:39;15.67;;;14.17;;
7929;SDS011;4010;42.698;23.124;2023-06-14T12:24:07;12.70;;;11.70;;
7929;SDS011;4010;42.698;23.124;2023-06-14T12:26:38;16.03;;;14.50;;
7929;SDS011;4010;42.698;23.124;2023-06-14T12:29:06;15.67;;;14.33;;
7929;SDS011;4010;42.698;23.124;2023-06-14T12:31:34;13.50;;;12.37;;
7929;SDS011;4010;42.698;23.124;2023-06-14T12:34:00;14.23;;;12.73;;
7929;SDS011;4010;42.698;23.124;2023-06-14T12:36:27;13.87;;;12.53;;
7929;SDS011;4010;42.698;23.124;2023-06-14T12:38:54;14.13;;;11.10;;
7929;SDS011;4010;42.698;23.124;2023-06-14T12:41:21;11.33;;;10.40;;
7929;SDS011;4010;42.698;23.124;2023-06-14T12:43:49;11.90;;;10.80;;
7929;SDS011;4010;42.698;23.124;2023-06-14T12:46:17;11.20;;;10.20;;
7929;SDS011;4010;42.698;23.124;2023-06-14T12:48:43;11.40;;;10.50;;
7929;SDS011;4010;42.698;23.124;2023-06-14T12:51:10;14.17;;;11.40;;
7929;SDS011;4010;42.698;23.124;2023-06-14T12:53:37;12.10;;;10.90;;
7929;SDS011;4010;42.698;23.124;2023-06-14T12:56:03;11.77;;;10.63;;
7929;SDS011;4010;42.698;23.124;2023-06-14T12:58:30;11.43;;;10.43;;
7929;SDS011;4010;42.698;23.124;2023-06-14T13:00:58;10.73;;;9.83;;
7929;SDS011;4010;42.698;23.124;2023-06-14T13:03:25;11.17;;;10.27;;
7929;SDS011;4010;42.698;23.124;2023-06-14T13:05:52;11.97;;;10.77;;
7929;SDS011;4010;42.698;23.124;2023-06-14T13:08:18;11.47;;;10.40;;
7929;SDS011;4010;42.698;23.124;2023-06-14T13:10:45;11.93;;;10.67;;
7929;SDS011;4010;42.698;23.124;2023-06-14T13:13:12;12.27;;;11.13;;
7929;SDS011;4010;42.698;23.124;2023-06-14T13:15:38;11.63;;;10.53;;
7929;SDS011;4010;42.698;23.124;2023-06-14T13:18:07;11.77;;;10.87;;
7929;SDS011;4010;42.698;23.124;2023-06-14T13:20:33;12.50;;;11.40;;
7929;SDS011;4010;42.698;23.124;2023-06-14T13:23:00;12.30;;;11.20;;
7929;SDS011;4010;42.698;23.124;2023-06-14T13:25:29;12.10;;;11.00;;
7929;SDS011;4010;42.698;23.124;2023-06-14T13:27:55;13.77;;;12.37;;
7929;SDS011;4010;42.698;23.124;2023-06-14T13:30:22;12.40;;;11.40;;
7929;SDS011;4010;42.698;23.124;2023-06-14T13:32:49;11.70;;;10.60;;
7929;SDS011;4010;42.698;23.124;2023-06-14T13:35:18;12.73;;;11.40;;
7929;SDS011;4010;42.698;23.124;2023-06-14T13:37:45;14.03;;;12.53;;
7929;SDS011;4010;42.698;23.124;2023-06-14T13:40:13;14.40;;;13.17;;
7929;SDS011;4010;42.698;23.124;2023-06-14T13:42:41;13.40;;;12.30;;
7929;SDS011;4010;42.698;23.124;2023-06-14T13:45:09;12.70;;;11.50;;
7929;SDS011;4010;42.698;23.124;2023-06-14T13:47:37;12.90;;;11.63;;
7929;SDS011;4010;42.698;23.124;2023-06-14T13:50:04;12.50;;;11.30;;
7929;SDS011;4010;42.698;23.124;2023-06-14T13:52:32;11.00;;;10.00;;
7929;SDS011;4010;42.698;23.124;2023-06-14T13:55:00;10.60;;;9.60;;
7929;SDS011;4010;42.698;23.124;2023-06-14T13:57:26;7.90;;;7.27;;
7929;SDS011;4010;42.698;23.124;2023-06-14T13:59:53;7.20;;;6.60;;
7929;SDS011;4010;42.698;23.124;2023-06-14T14:02:25;7.00;;;6.30;;
7929;SDS011;4010;42.698;23.124;2023-06-14T14:04:53;6.30;;;5.80;;
7929;SDS011;4010;42.698;23.124;2023-06-14T14:07:20;6.63;;;5.73;;
7929;SDS011;4010;42.698;23.124;2023-06-14T14:09:48;6.50;;;5.80;;
7929;SDS011;4010;42.698;23.124;2023-06-14T14:12:15;6.30;;;5.77;;
7929;SDS011;4010;42.698;23.124;2023-06-14T14:14:41;6.63;;;6.13;;
7929;SDS011;4010;42.698;23.124;2023-06-14T14:17:08;6.40;;;5.90;;
7929;SDS011;4010;42.698;23.124;2023-06-14T14:19:35;6.27;;;5.67;;
7929;SDS011;4010;42.698;23.124;2023-06-14T14:22:01;7.63;;;5.70;;
7929;SDS011;4010;42.698;23.124;2023-06-14T14:24:28;6.93;;;6.43;;
7929;SDS011;4010;42.698;23.124;2023-06-14T14:26:56;5.30;;;5.00;;
7929;SDS011;4010;42.698;23.124;2023-06-14T14:29:25;6.07;;;5.50;;
7929;SDS011;4010;42.698;23.124;2023-06-14T14:31:54;6.67;;;6.17;;
7929;SDS011;4010;42.698;23.124;2023-06-14T14:34:21;6.77;;;6.10;;
7929;SDS011;4010;42.698;23.124;2023-06-14T14:36:47;6.83;;;6.23;;
7929;SDS011;4010;42.698;23.124;2023-06-14T14:39:14;6.37;;;5.83;;
7929;SDS011;4010;42.698;23.124;2023-06-14T14:41:40;6.50;;;5.97;;
7929;SDS011;4010;42.698;23.124;2023-06-14T14:44:08;7.40;;;6.80;;
7929;SDS011;4010;42.698;23.124;2023-06-14T14:46:35;6.63;;;6.13;;
7929;SDS011;4010;42.698;23.124;2023-06-14T14:49:02;7.10;;;6.60;;
7929;SDS011;4010;42.698;23.124;2023-06-14T14:51:29;7.70;;;7.10;;
7929;SDS011;4010;42.698;23.124;2023-06-14T14:53:56;7.53;;;6.83;;
7929;SDS011;4010;42.698;23.124;2023-06-14T14:56:22;7.40;;;6.70;;
7929;SDS011;4010;42.698;23.124;2023-06-14T14:58:50;7.60;;;6.90;;
7929;SDS011;4010;42.698;23.124;2023-06-14T15:01:19;7.53;;;6.93;;
7929;SDS011;4010;42.698;23.124;2023-06-14T15:03:46;7.07;;;6.57;;